createdAt,value
2022-08-10T00:03:48.996Z,10.39
2022-08-10T00:18:49.115Z,12.15
2022-08-10T00:33:49.187Z,11.75
2022-08-10T00:48:49.559Z,11.5
2022-08-10T01:04:35.739Z,11.77
2022-08-10T01:18:48.856Z,11.47
2022-08-10T01:33:58.298Z,11.28
2022-08-10T01:48:48.725Z,11.66
2022-08-10T02:04:01.742Z,11.77
2022-08-10T02:18:48.486Z,12.14
2022-08-10T02:33:56.984Z,11.63
2022-08-10T02:48:49.173Z,11.98
2022-08-10T03:03:48.659Z,12.6
2022-08-10T03:18:48.921Z,12.38
2022-08-10T03:33:48.442Z,14.23
2022-08-10T03:48:49.996Z,12.05
2022-08-10T04:03:48.537Z,13.17
2022-08-10T04:18:49.029Z,13.39
2022-08-10T04:33:48.714Z,14.8
2022-08-10T04:48:59.431Z,14.53
2022-08-10T05:04:34.193Z,19.41
2022-08-10T05:18:48.839Z,15.72
2022-08-10T05:33:48.463Z,21.89
2022-08-10T05:48:58.474Z,14.05
2022-08-10T06:03:48.424Z,14.05
2022-08-10T06:18:48.522Z,13.04
2022-08-10T06:33:48.811Z,13.01
2022-08-10T06:48:48.586Z,11.99
2022-08-10T07:03:48.570Z,11.88
2022-08-10T07:18:48.919Z,11.72
2022-08-10T07:33:49.131Z,11.32
2022-08-10T07:48:48.689Z,10.94
2022-08-10T08:04:06.120Z,10.7
2022-08-10T08:18:58.545Z,10.03
2022-08-10T08:33:48.843Z,11.26
2022-08-10T08:48:49.211Z,11.67
2022-08-10T09:03:48.528Z,11.47
2022-08-10T09:18:48.618Z,11.38
2022-08-10T09:36:17.684Z,10.22
2022-08-10T09:48:48.683Z,9.92
2022-08-10T10:03:48.846Z,9.98
2022-08-10T10:18:48.426Z,11.28
2022-08-10T10:33:51.434Z,9.96
2022-08-10T10:48:49.038Z,10.6
2022-08-10T11:03:48.995Z,10.7
2022-08-10T11:18:48.536Z,10.41
2022-08-10T11:34:11.087Z,10.59
2022-08-10T11:48:52.450Z,10.7
2022-08-10T12:03:49.043Z,10.16
2022-08-10T12:18:48.909Z,11.07
2022-08-10T12:34:01.720Z,11.51
2022-08-10T12:48:48.942Z,10.81
2022-08-10T13:04:22.173Z,10.86
2022-08-10T13:18:48.546Z,10.52
2022-08-10T13:34:04.167Z,9.4
2022-08-10T13:48:49.030Z,9.48
2022-08-10T14:03:49.281Z,9.99
2022-08-10T14:18:49.165Z,9.7
2022-08-10T14:33:48.594Z,9.8
2022-08-10T14:48:48.578Z,9.18
2022-08-10T15:03:58.107Z,8.51
2022-08-10T15:18:57.676Z,7.79
2022-08-10T15:33:57.997Z,6.85
2022-08-10T15:48:48.858Z,6.44
2022-08-10T16:03:54.535Z,5.63
2022-08-10T16:18:48.881Z,6.64
2022-08-10T16:33:52.476Z,6.03
2022-08-10T16:48:50.638Z,5.68
2022-08-10T17:04:05.157Z,5.5
2022-08-10T17:18:48.566Z,5.53
2022-08-10T17:33:48.886Z,6.04
2022-08-10T17:48:49.220Z,5.55
2022-08-10T18:03:48.775Z,6.69
2022-08-10T18:18:48.465Z,6.6
2022-08-10T18:33:49.183Z,7.83
2022-08-10T18:48:49.076Z,8.37
2022-08-10T19:03:53.905Z,8.7
2022-08-10T19:18:49.005Z,8.77
2022-08-10T19:33:49.106Z,7.91
2022-08-10T19:48:49.171Z,8.04
2022-08-10T20:03:48.457Z,7.77
2022-08-10T20:18:48.655Z,7.88
2022-08-10T20:33:48.923Z,7.87
2022-08-10T20:48:49.159Z,7.33
2022-08-10T21:03:48.705Z,8.09
2022-08-10T21:18:51.814Z,7.69
2022-08-10T21:33:49.198Z,15.43
2022-08-10T21:48:57.501Z,12.27
2022-08-10T22:03:48.898Z,13.54
2022-08-10T22:18:58.749Z,16.05
2022-08-10T22:33:49.134Z,12.1
2022-08-10T22:48:50.135Z,10.73
2022-08-10T23:03:48.645Z,12.63
2022-08-10T23:18:49.170Z,12.85
2022-08-10T23:33:48.756Z,11.83
2022-08-10T23:48:48.723Z,10.42
